TKJ4122 LTAC-LTCU
Flight info
| Callsign | TKJ4122 |
|---|---|
| Flight time | 1h 2m |
| Altitude | 35000 |
| Route | GOBIT UL614 EZS UW310 ROTKU |
| Aircraft | B38M/M-SDE1FGHILORVWXY/HB1 |
Departure
| Time | 2026-04-21 11:55 |
|---|---|
| Airport | Esenboğa International Airport (LTAC) |
Arrival
| Time | 2026-04-21 12:57 |
|---|---|
| Airport | Bingöl Airport (LTCU) |
| Time | Latitude | Longitude | Altitude | Speed | Heading |
|---|---|---|---|---|---|
| 2026-04-21 11:18 | 40.11494 | 32.98952 | 3115 ft | 0 kts | 131° |
| 2026-04-21 11:43 | 40.11496 | 32.98949 | 3115 ft | 3 kts | 131° |
| 2026-04-21 11:43 | 40.11511 | 32.98920 | 3115 ft | 4 kts | 115° |
| 2026-04-21 11:43 | 40.11518 | 32.98888 | 3115 ft | 4 kts | 89° |
| 2026-04-21 11:43 | 40.11510 | 32.98859 | 3115 ft | 3 kts | 42° |
| 2026-04-21 11:44 | 40.11508 | 32.98856 | 3115 ft | 1 kts | 39° |
| 2026-04-21 11:48 | 40.11525 | 32.98874 | 3115 ft | 6 kts | 39° |
| 2026-04-21 11:48 | 40.11581 | 32.98936 | 3115 ft | 13 kts | 29° |
| 2026-04-21 11:48 | 40.11649 | 32.98903 | 3115 ft | 11 kts | 311° |
| 2026-04-21 11:48 | 40.11712 | 32.98915 | 3115 ft | 14 kts | 33° |
| 2026-04-21 11:49 | 40.11815 | 32.99013 | 3116 ft | 23 kts | 36° |
| 2026-04-21 11:49 | 40.11964 | 32.99156 | 3117 ft | 30 kts | 37° |
| 2026-04-21 11:49 | 40.12128 | 32.99312 | 3119 ft | 26 kts | 36° |
| 2026-04-21 11:49 | 40.12272 | 32.99450 | 3121 ft | 26 kts | 36° |
| 2026-04-21 11:50 | 40.12418 | 32.99590 | 3123 ft | 26 kts | 36° |
| 2026-04-21 11:50 | 40.12563 | 32.99728 | 3122 ft | 26 kts | 36° |
| 2026-04-21 11:50 | 40.12709 | 32.99867 | 3122 ft | 26 kts | 36° |
| 2026-04-21 11:50 | 40.12857 | 33.00009 | 3126 ft | 27 kts | 36° |
| 2026-04-21 11:51 | 40.13005 | 33.00150 | 3126 ft | 27 kts | 36° |
| 2026-04-21 11:51 | 40.13156 | 33.00295 | 3129 ft | 27 kts | 36° |
| 2026-04-21 11:51 | 40.13304 | 33.00436 | 3131 ft | 26 kts | 36° |
| 2026-04-21 11:51 | 40.13446 | 33.00571 | 3133 ft | 25 kts | 36° |
| 2026-04-21 11:52 | 40.13588 | 33.00708 | 3134 ft | 26 kts | 36° |
| 2026-04-21 11:52 | 40.13732 | 33.00845 | 3136 ft | 26 kts | 36° |
| 2026-04-21 11:52 | 40.13872 | 33.00978 | 3137 ft | 23 kts | 36° |
| 2026-04-21 11:52 | 40.13985 | 33.01072 | 3138 ft | 18 kts | 15° |
| 2026-04-21 11:53 | 40.14083 | 33.01028 | 3139 ft | 14 kts | 309° |
| 2026-04-21 11:53 | 40.14125 | 33.00908 | 3138 ft | 15 kts | 303° |
| 2026-04-21 11:53 | 40.14188 | 33.00795 | 3138 ft | 16 kts | 307° |
| 2026-04-21 11:53 | 40.14215 | 33.00704 | 3138 ft | 9 kts | 243° |
| 2026-04-21 11:54 | 40.14174 | 33.00655 | 3138 ft | 7 kts | 216° |
| 2026-04-21 11:54 | 40.14165 | 33.00646 | 3138 ft | 0 kts | 216° |
| 2026-04-21 11:54 | 40.14136 | 33.00618 | 3138 ft | 23 kts | 217° |
| 2026-04-21 11:54 | 40.13808 | 33.00306 | 3134 ft | 92 kts | 216° |
| 2026-04-21 11:55 | 40.13120 | 32.99650 | 3127 ft | 151 kts | 216° |
| 2026-04-21 11:55 | 40.12170 | 32.98769 | 3454 ft | 174 kts | 219° |
| 2026-04-21 11:55 | 40.11191 | 32.97841 | 4241 ft | 180 kts | 220° |
| 2026-04-21 11:55 | 40.10152 | 32.96855 | 5035 ft | 181 kts | 219° |
| 2026-04-21 11:56 | 40.09168 | 32.95918 | 5885 ft | 174 kts | 220° |
| 2026-04-21 11:56 | 40.08174 | 32.94978 | 6587 ft | 178 kts | 220° |
| 2026-04-21 11:56 | 40.07134 | 32.93993 | 7129 ft | 190 kts | 219° |
| 2026-04-21 11:56 | 40.06022 | 32.92945 | 7648 ft | 206 kts | 219° |
| 2026-04-21 11:57 | 40.04815 | 32.91807 | 8124 ft | 227 kts | 218° |
| 2026-04-21 11:57 | 40.03323 | 32.90890 | 8572 ft | 255 kts | 193° |
| 2026-04-21 11:57 | 40.01479 | 32.91112 | 9106 ft | 282 kts | 160° |
| 2026-04-21 11:57 | 39.99857 | 32.92707 | 9680 ft | 305 kts | 126° |
| 2026-04-21 11:58 | 39.99114 | 32.95267 | 10621 ft | 307 kts | 100° |
| 2026-04-21 11:58 | 39.98669 | 32.98050 | 11246 ft | 320 kts | 104° |
| 2026-04-21 11:58 | 39.98112 | 33.00943 | 11701 ft | 338 kts | 105° |
| 2026-04-21 11:58 | 39.97476 | 33.03969 | 12226 ft | 353 kts | 107° |
| 2026-04-21 11:59 | 39.96845 | 33.07080 | 12848 ft | 362 kts | 105° |
| 2026-04-21 11:59 | 39.96192 | 33.10257 | 13755 ft | 364 kts | 105° |
| 2026-04-21 11:59 | 39.95554 | 33.13486 | 14430 ft | 370 kts | 104° |
| 2026-04-21 11:59 | 39.94897 | 33.16745 | 15162 ft | 374 kts | 104° |
| 2026-04-21 12:00 | 39.94262 | 33.20058 | 15900 ft | 378 kts | 104° |
| 2026-04-21 12:00 | 39.93610 | 33.23388 | 16628 ft | 382 kts | 104° |
| 2026-04-21 12:00 | 39.92947 | 33.26760 | 17339 ft | 386 kts | 104° |
| 2026-04-21 12:00 | 39.92276 | 33.30114 | 18031 ft | 390 kts | 104° |
| 2026-04-21 12:01 | 39.91576 | 33.33592 | 18628 ft | 394 kts | 104° |
| 2026-04-21 12:01 | 39.90884 | 33.37013 | 19223 ft | 397 kts | 104° |
| 2026-04-21 12:01 | 39.90175 | 33.40508 | 19796 ft | 402 kts | 104° |
| 2026-04-21 12:01 | 39.89457 | 33.44046 | 20373 ft | 405 kts | 103° |
| 2026-04-21 12:02 | 39.88731 | 33.47615 | 20913 ft | 410 kts | 103° |
| 2026-04-21 12:02 | 39.86958 | 33.54734 | 22015 ft | 418 kts | 109° |
| 2026-04-21 12:02 | 39.85962 | 33.58301 | 22548 ft | 422 kts | 108° |
| 2026-04-21 12:03 | 39.84966 | 33.61912 | 23082 ft | 425 kts | 108° |
| 2026-04-21 12:03 | 39.83966 | 33.65564 | 23607 ft | 429 kts | 108° |
| 2026-04-21 12:03 | 39.82960 | 33.69239 | 24047 ft | 433 kts | 108° |
| 2026-04-21 12:03 | 39.81948 | 33.72935 | 24510 ft | 436 kts | 108° |
| 2026-04-21 12:04 | 39.80926 | 33.76665 | 24942 ft | 439 kts | 108° |
| 2026-04-21 12:04 | 39.79895 | 33.80421 | 25372 ft | 442 kts | 108° |
| 2026-04-21 12:04 | 39.78869 | 33.84154 | 25806 ft | 444 kts | 109° |
| 2026-04-21 12:04 | 39.77809 | 33.87997 | 26211 ft | 448 kts | 109° |
| 2026-04-21 12:05 | 39.76733 | 33.91805 | 26624 ft | 451 kts | 109° |
| 2026-04-21 12:05 | 39.75647 | 33.95642 | 27042 ft | 453 kts | 109° |
| 2026-04-21 12:05 | 39.74571 | 33.99449 | 27439 ft | 456 kts | 109° |
| 2026-04-21 12:05 | 39.73476 | 34.03316 | 27826 ft | 459 kts | 110° |
| 2026-04-21 12:06 | 39.72367 | 34.07227 | 28200 ft | 462 kts | 110° |
| 2026-04-21 12:06 | 39.71250 | 34.11158 | 28584 ft | 465 kts | 110° |
| 2026-04-21 12:06 | 39.70128 | 34.15105 | 28964 ft | 467 kts | 110° |
| 2026-04-21 12:06 | 39.68995 | 34.19082 | 29329 ft | 470 kts | 110° |
| 2026-04-21 12:07 | 39.67856 | 34.23077 | 29679 ft | 473 kts | 110° |
| 2026-04-21 12:07 | 39.66707 | 34.27096 | 30036 ft | 476 kts | 110° |
| 2026-04-21 12:07 | 39.65552 | 34.31134 | 30331 ft | 479 kts | 110° |
| 2026-04-21 12:07 | 39.64388 | 34.35195 | 30628 ft | 481 kts | 110° |
| 2026-04-21 12:08 | 39.63218 | 34.39275 | 30944 ft | 483 kts | 111° |
| 2026-04-21 12:08 | 39.62041 | 34.43363 | 31230 ft | 485 kts | 111° |
| 2026-04-21 12:08 | 39.60859 | 34.47465 | 31528 ft | 487 kts | 111° |
| 2026-04-21 12:08 | 39.59670 | 34.51590 | 31819 ft | 489 kts | 111° |
| 2026-04-21 12:09 | 39.58474 | 34.55726 | 32104 ft | 491 kts | 111° |
| 2026-04-21 12:09 | 39.57269 | 34.59887 | 32402 ft | 493 kts | 111° |
| 2026-04-21 12:09 | 39.56063 | 34.64049 | 32686 ft | 495 kts | 111° |
| 2026-04-21 12:09 | 39.54848 | 34.68232 | 33031 ft | 496 kts | 111° |
| 2026-04-21 12:10 | 39.53631 | 34.72418 | 33438 ft | 495 kts | 111° |
| 2026-04-21 12:10 | 39.52418 | 34.76580 | 33837 ft | 494 kts | 111° |
| 2026-04-21 12:10 | 39.51207 | 34.80734 | 34164 ft | 494 kts | 112° |
| 2026-04-21 12:10 | 39.49988 | 34.84905 | 34457 ft | 494 kts | 112° |
| 2026-04-21 12:11 | 39.48788 | 34.89006 | 34728 ft | 494 kts | 112° |
| 2026-04-21 12:11 | 39.47568 | 34.93165 | 34967 ft | 495 kts | 112° |
| 2026-04-21 12:11 | 39.46339 | 34.97353 | 34984 ft | 500 kts | 112° |
| 2026-04-21 12:12 | 39.43875 | 35.05727 | 34987 ft | 494 kts | 112° |
| 2026-04-21 12:12 | 39.41427 | 35.14021 | 34981 ft | 493 kts | 112° |
| 2026-04-21 12:13 | 39.39012 | 35.22328 | 34981 ft | 493 kts | 111° |
| 2026-04-21 12:13 | 39.36607 | 35.30642 | 34983 ft | 494 kts | 111° |
| 2026-04-21 12:14 | 39.34193 | 35.38952 | 34989 ft | 493 kts | 111° |
| 2026-04-21 12:14 | 39.31791 | 35.47195 | 34985 ft | 493 kts | 111° |
| 2026-04-21 12:15 | 39.29366 | 35.55493 | 34982 ft | 494 kts | 112° |
| 2026-04-21 12:15 | 39.26935 | 35.63787 | 34989 ft | 493 kts | 111° |
| 2026-04-21 12:16 | 39.24505 | 35.72049 | 34984 ft | 493 kts | 111° |
| 2026-04-21 12:16 | 39.22063 | 35.80328 | 34978 ft | 493 kts | 111° |
| 2026-04-21 12:17 | 39.19636 | 35.88529 | 34976 ft | 492 kts | 111° |
| 2026-04-21 12:17 | 39.17190 | 35.96771 | 34988 ft | 492 kts | 111° |
| 2026-04-21 12:18 | 39.15093 | 36.05118 | 34975 ft | 490 kts | 98° |
| 2026-04-21 12:18 | 39.14009 | 36.13800 | 34987 ft | 491 kts | 99° |
| 2026-04-21 12:19 | 39.12902 | 36.22484 | 34973 ft | 491 kts | 99° |
| 2026-04-21 12:19 | 39.11798 | 36.31141 | 34973 ft | 490 kts | 99° |
| 2026-04-21 12:20 | 39.10686 | 36.39799 | 34983 ft | 489 kts | 99° |
| 2026-04-21 12:20 | 39.09569 | 36.48450 | 34968 ft | 489 kts | 99° |
| 2026-04-21 12:21 | 39.08449 | 36.57078 | 34974 ft | 488 kts | 99° |
| 2026-04-21 12:21 | 39.07322 | 36.65704 | 34970 ft | 488 kts | 99° |
| 2026-04-21 12:22 | 39.06190 | 36.74315 | 34972 ft | 488 kts | 99° |
| 2026-04-21 12:22 | 39.05059 | 36.82867 | 34969 ft | 487 kts | 99° |
| 2026-04-21 12:23 | 39.03917 | 36.91454 | 34967 ft | 487 kts | 99° |
| 2026-04-21 12:23 | 39.02767 | 37.00053 | 34964 ft | 487 kts | 99° |
| 2026-04-21 12:24 | 39.01612 | 37.08631 | 34962 ft | 486 kts | 99° |
| 2026-04-21 12:24 | 39.00459 | 37.17154 | 34964 ft | 486 kts | 99° |
| 2026-04-21 12:25 | 38.99295 | 37.25708 | 34958 ft | 486 kts | 99° |
| 2026-04-21 12:25 | 38.98126 | 37.34253 | 34961 ft | 486 kts | 99° |
| 2026-04-21 12:26 | 38.96951 | 37.42791 | 34954 ft | 485 kts | 99° |
| 2026-04-21 12:26 | 38.95768 | 37.51333 | 34945 ft | 485 kts | 99° |
| 2026-04-21 12:27 | 38.94581 | 37.59861 | 34938 ft | 485 kts | 99° |
| 2026-04-21 12:27 | 38.93390 | 37.68372 | 34951 ft | 484 kts | 99° |
| 2026-04-21 12:28 | 38.92193 | 37.76878 | 34942 ft | 484 kts | 99° |
| 2026-04-21 12:28 | 38.90989 | 37.85389 | 34946 ft | 484 kts | 99° |
| 2026-04-21 12:29 | 38.89780 | 37.93886 | 34938 ft | 484 kts | 99° |
| 2026-04-21 12:29 | 38.88563 | 38.02385 | 34937 ft | 483 kts | 99° |
| 2026-04-21 12:30 | 38.87352 | 38.10806 | 34941 ft | 483 kts | 99° |
| 2026-04-21 12:30 | 38.86125 | 38.19290 | 34945 ft | 483 kts | 99° |
| 2026-04-21 12:31 | 38.84893 | 38.27762 | 34941 ft | 483 kts | 99° |
| 2026-04-21 12:31 | 38.83656 | 38.36231 | 34948 ft | 483 kts | 99° |
| 2026-04-21 12:32 | 38.82414 | 38.44687 | 34942 ft | 482 kts | 99° |
| 2026-04-21 12:32 | 38.81165 | 38.53142 | 34949 ft | 482 kts | 99° |
| 2026-04-21 12:33 | 38.79911 | 38.61587 | 34946 ft | 482 kts | 99° |
| 2026-04-21 12:33 | 38.78653 | 38.70032 | 34952 ft | 482 kts | 99° |
| 2026-04-21 12:34 | 38.77390 | 38.78466 | 34948 ft | 482 kts | 99° |
| 2026-04-21 12:34 | 38.76336 | 38.85475 | 34955 ft | 482 kts | 100° |
| 2026-04-21 12:35 | 38.75078 | 38.93903 | 34957 ft | 482 kts | 99° |
| 2026-04-21 12:35 | 38.73827 | 39.02343 | 34431 ft | 480 kts | 99° |
| 2026-04-21 12:35 | 38.73205 | 39.06521 | 33957 ft | 475 kts | 99° |
| 2026-04-21 12:36 | 38.72585 | 39.10676 | 33341 ft | 473 kts | 99° |
| 2026-04-21 12:36 | 38.71971 | 39.14783 | 32776 ft | 469 kts | 99° |
| 2026-04-21 12:36 | 38.71357 | 39.18879 | 32261 ft | 465 kts | 99° |
| 2026-04-21 12:36 | 38.71042 | 39.22958 | 31680 ft | 458 kts | 84° |
| 2026-04-21 12:37 | 38.71436 | 39.26969 | 31169 ft | 451 kts | 79° |
| 2026-04-21 12:37 | 38.71864 | 39.30936 | 30723 ft | 446 kts | 79° |
| 2026-04-21 12:37 | 38.72302 | 39.34847 | 30228 ft | 442 kts | 79° |
| 2026-04-21 12:37 | 38.72749 | 39.38731 | 29648 ft | 440 kts | 79° |
| 2026-04-21 12:38 | 38.73196 | 39.42584 | 29111 ft | 436 kts | 79° |
| 2026-04-21 12:38 | 38.73640 | 39.46407 | 28612 ft | 431 kts | 79° |
| 2026-04-21 12:38 | 38.74077 | 39.50176 | 28142 ft | 426 kts | 79° |
| 2026-04-21 12:38 | 38.74504 | 39.53865 | 27649 ft | 422 kts | 79° |
| 2026-04-21 12:39 | 38.74934 | 39.57602 | 27175 ft | 417 kts | 79° |
| 2026-04-21 12:39 | 38.75350 | 39.61224 | 26693 ft | 413 kts | 79° |
| 2026-04-21 12:39 | 38.75767 | 39.64853 | 26222 ft | 410 kts | 79° |
| 2026-04-21 12:39 | 38.76178 | 39.68453 | 25752 ft | 407 kts | 80° |
| 2026-04-21 12:40 | 38.76586 | 39.72028 | 25292 ft | 404 kts | 80° |
| 2026-04-21 12:40 | 38.76990 | 39.75578 | 24831 ft | 401 kts | 80° |
| 2026-04-21 12:40 | 38.77391 | 39.79113 | 24379 ft | 399 kts | 80° |
| 2026-04-21 12:40 | 38.77787 | 39.82617 | 23922 ft | 397 kts | 80° |
| 2026-04-21 12:41 | 38.78180 | 39.86103 | 23462 ft | 395 kts | 80° |
| 2026-04-21 12:41 | 38.78571 | 39.89576 | 22938 ft | 392 kts | 80° |
| 2026-04-21 12:41 | 38.78957 | 39.93019 | 22472 ft | 388 kts | 80° |
| 2026-04-21 12:41 | 38.79354 | 39.96431 | 22008 ft | 385 kts | 79° |
| 2026-04-21 12:42 | 38.79780 | 39.99814 | 21515 ft | 383 kts | 79° |
| 2026-04-21 12:42 | 38.80195 | 40.03134 | 21100 ft | 379 kts | 79° |
| 2026-04-21 12:42 | 38.80613 | 40.06498 | 20672 ft | 376 kts | 79° |
| 2026-04-21 12:42 | 38.81022 | 40.09804 | 20247 ft | 374 kts | 79° |
| 2026-04-21 12:43 | 38.81422 | 40.13049 | 19828 ft | 374 kts | 80° |
| 2026-04-21 12:43 | 38.81827 | 40.16340 | 19405 ft | 374 kts | 80° |
| 2026-04-21 12:43 | 38.82137 | 40.19661 | 18919 ft | 376 kts | 83° |
| 2026-04-21 12:43 | 38.82420 | 40.23024 | 18502 ft | 374 kts | 83° |
| 2026-04-21 12:44 | 38.82702 | 40.26282 | 18072 ft | 372 kts | 83° |
| 2026-04-21 12:44 | 38.82989 | 40.29579 | 17603 ft | 370 kts | 83° |
| 2026-04-21 12:44 | 38.83272 | 40.32836 | 17174 ft | 366 kts | 83° |
| 2026-04-21 12:44 | 38.83569 | 40.36057 | 16802 ft | 360 kts | 78° |
| 2026-04-21 12:45 | 38.84388 | 40.38993 | 16718 ft | 344 kts | 58° |
| 2026-04-21 12:45 | 38.85873 | 40.41341 | 16555 ft | 342 kts | 39° |
| 2026-04-21 12:45 | 38.87873 | 40.42962 | 16261 ft | 341 kts | 20° |
| 2026-04-21 12:45 | 38.90165 | 40.43659 | 15869 ft | 337 kts | 0° |
| 2026-04-21 12:46 | 38.92467 | 40.43360 | 15420 ft | 331 kts | 341° |
| 2026-04-21 12:46 | 38.94535 | 40.42130 | 14916 ft | 327 kts | 323° |
| 2026-04-21 12:46 | 38.96150 | 40.40120 | 14526 ft | 321 kts | 304° |
| 2026-04-21 12:46 | 38.97118 | 40.37635 | 14301 ft | 302 kts | 285° |
| 2026-04-21 12:47 | 38.97475 | 40.35062 | 14133 ft | 283 kts | 279° |
| 2026-04-21 12:47 | 38.98147 | 40.32810 | 13948 ft | 265 kts | 304° |
| 2026-04-21 12:47 | 38.99165 | 40.30931 | 13825 ft | 247 kts | 300° |
| 2026-04-21 12:47 | 39.00175 | 40.29247 | 13673 ft | 232 kts | 317° |
| 2026-04-21 12:48 | 39.01491 | 40.28218 | 13557 ft | 219 kts | 336° |
| 2026-04-21 12:48 | 39.02925 | 40.27724 | 13380 ft | 208 kts | 347° |
| 2026-04-21 12:48 | 39.04311 | 40.27405 | 13206 ft | 196 kts | 347° |
| 2026-04-21 12:48 | 39.05659 | 40.27090 | 13067 ft | 202 kts | 346° |
| 2026-04-21 12:49 | 39.07050 | 40.26656 | 12819 ft | 207 kts | 335° |
| 2026-04-21 12:49 | 39.08190 | 40.25572 | 12362 ft | 206 kts | 302° |
| 2026-04-21 12:49 | 39.08625 | 40.23856 | 11976 ft | 203 kts | 271° |
| 2026-04-21 12:49 | 39.08301 | 40.22115 | 11656 ft | 203 kts | 242° |
| 2026-04-21 12:50 | 39.07327 | 40.20801 | 11386 ft | 208 kts | 213° |
| 2026-04-21 12:50 | 39.05942 | 40.20225 | 11120 ft | 213 kts | 186° |
| 2026-04-21 12:50 | 39.04487 | 40.20527 | 10884 ft | 216 kts | 159° |
| 2026-04-21 12:50 | 39.03262 | 40.21655 | 10634 ft | 219 kts | 132° |
| 2026-04-21 12:51 | 39.02465 | 40.23325 | 10380 ft | 221 kts | 118° |
| 2026-04-21 12:51 | 39.01758 | 40.25086 | 10112 ft | 221 kts | 119° |
| 2026-04-21 12:51 | 39.01029 | 40.26824 | 9826 ft | 221 kts | 121° |
| 2026-04-21 12:51 | 39.00275 | 40.28548 | 9508 ft | 221 kts | 121° |
| 2026-04-21 12:52 | 38.99522 | 40.30229 | 9182 ft | 220 kts | 122° |
| 2026-04-21 12:52 | 38.98755 | 40.31922 | 8851 ft | 218 kts | 122° |
| 2026-04-21 12:52 | 38.97982 | 40.33612 | 8534 ft | 219 kts | 123° |
| 2026-04-21 12:52 | 38.97206 | 40.35298 | 8205 ft | 219 kts | 123° |
| 2026-04-21 12:53 | 38.96434 | 40.36971 | 7873 ft | 217 kts | 123° |
| 2026-04-21 12:53 | 38.95665 | 40.38635 | 7551 ft | 216 kts | 123° |
| 2026-04-21 12:53 | 38.94924 | 40.40236 | 7239 ft | 200 kts | 124° |
| 2026-04-21 12:53 | 38.94222 | 40.41751 | 6959 ft | 194 kts | 123° |
| 2026-04-21 12:54 | 38.93559 | 40.43187 | 6674 ft | 181 kts | 124° |
| 2026-04-21 12:54 | 38.92929 | 40.44546 | 6420 ft | 174 kts | 124° |
| 2026-04-21 12:54 | 38.92314 | 40.45870 | 6138 ft | 172 kts | 123° |
| 2026-04-21 12:54 | 38.91699 | 40.47192 | 5844 ft | 171 kts | 124° |
| 2026-04-21 12:55 | 38.91094 | 40.48501 | 5556 ft | 169 kts | 122° |
| 2026-04-21 12:55 | 38.90491 | 40.49803 | 5284 ft | 170 kts | 123° |
| 2026-04-21 12:55 | 38.89895 | 40.51092 | 5000 ft | 166 kts | 124° |
| 2026-04-21 12:55 | 38.89308 | 40.52361 | 4737 ft | 165 kts | 124° |
| 2026-04-21 12:56 | 38.88718 | 40.53624 | 4483 ft | 165 kts | 124° |
| 2026-04-21 12:56 | 38.88132 | 40.54901 | 4219 ft | 166 kts | 124° |
| 2026-04-21 12:56 | 38.87547 | 40.56160 | 3981 ft | 163 kts | 124° |
| 2026-04-21 12:56 | 38.86963 | 40.57401 | 3756 ft | 162 kts | 125° |
| 2026-04-21 12:57 | 38.86401 | 40.58620 | 3573 ft | 156 kts | 124° |
| 2026-04-21 12:57 | 38.85922 | 40.59643 | 3566 ft | 102 kts | 120° |
| 2026-04-21 12:57 | 38.85674 | 40.60178 | 3557 ft | 49 kts | 120° |
| 2026-04-21 12:57 | 38.85566 | 40.60415 | 3559 ft | 20 kts | 120° |
| 2026-04-21 12:58 | 38.85551 | 40.60541 | 3560 ft | 14 kts | 80° |
| 2026-04-21 12:58 | 38.85511 | 40.60577 | 3563 ft | 8 kts | 222° |
| 2026-04-21 12:58 | 38.85518 | 40.60516 | 3561 ft | 8 kts | 301° |
| 2026-04-21 12:58 | 38.85550 | 40.60447 | 3556 ft | 11 kts | 300° |
| 2026-04-21 12:59 | 38.85603 | 40.60331 | 3557 ft | 20 kts | 301° |
| 2026-04-21 12:59 | 38.85686 | 40.60155 | 3558 ft | 25 kts | 301° |
| 2026-04-21 12:59 | 38.85775 | 40.59963 | 3559 ft | 26 kts | 301° |
| 2026-04-21 12:59 | 38.85863 | 40.59770 | 3571 ft | 25 kts | 300° |
| 2026-04-21 13:00 | 38.85954 | 40.59577 | 3564 ft | 26 kts | 301° |
| 2026-04-21 13:00 | 38.86046 | 40.59377 | 3567 ft | 26 kts | 300° |
| 2026-04-21 13:00 | 38.86076 | 40.59243 | 3558 ft | 13 kts | 251° |
| 2026-04-21 13:00 | 38.86026 | 40.59184 | 3565 ft | 10 kts | 213° |
| 2026-04-21 13:01 | 38.85976 | 40.59148 | 3561 ft | 8 kts | 207° |
| 2026-04-21 13:01 | 38.85950 | 40.59118 | 3564 ft | 2 kts | 238° |
| 2026-04-21 13:01 | 38.85943 | 40.59096 | 3554 ft | 2 kts | 249° |
| 2026-04-21 13:01 | 38.85941 | 40.59091 | 3555 ft | 0 kts | 249° |